sensor_id;sensor_type;location;lat;lon;timestamp;pressure;altitude;pressure_sealevel;temperature;humidity
53671;BME280;39571;48.612;8.088;2023-02-16T08:59:51;101077.66;;;4.95;100.00
53671;BME280;39571;48.612;8.088;2023-02-16T09:05:53;101075.47;;;7.07;100.00
53671;BME280;39571;48.612;8.088;2023-02-16T09:19:01;101072.66;;;8.28;100.00
53671;BME280;39571;48.612;8.088;2023-02-16T09:21:27;101070.69;;;8.68;100.00
53671;BME280;39571;48.612;8.088;2023-02-16T09:27:15;101062.94;;;9.38;100.00
53671;BME280;39571;48.612;8.088;2023-02-16T09:31:26;101070.81;;;10.18;100.00
53671;BME280;39571;48.612;8.088;2023-02-16T09:44:27;101067.09;;;10.99;100.00
53671;BME280;39571;48.612;8.088;2023-02-16T09:49:05;101049.81;;;11.42;100.00
53671;BME280;39571;48.612;8.088;2023-02-16T09:54:48;101043.84;;;11.78;100.00
53671;BME280;39571;48.612;8.088;2023-02-16T10:00:03;101049.16;;;12.53;100.00
53671;BME280;39571;48.612;8.088;2023-02-16T10:05:32;101045.59;;;12.88;100.00
53671;BME280;39571;48.612;8.088;2023-02-16T10:10:43;101045.63;;;12.79;100.00
53671;BME280;39571;48.612;8.088;2023-02-16T10:15:45;101047.41;;;12.52;100.00
53671;BME280;39571;48.612;8.088;2023-02-16T10:18:27;101042.13;;;12.34;100.00
53671;BME280;39571;48.612;8.088;2023-02-16T10:20:57;101042.16;;;12.42;100.00
53671;BME280;39571;48.612;8.088;2023-02-16T10:23:33;101037.78;;;12.39;100.00
53671;BME280;39571;48.612;8.088;2023-02-16T10:26:37;101029.84;;;12.82;100.00
53671;BME280;39571;48.612;8.088;2023-02-16T10:29:12;101031.47;;;13.31;100.00
53671;BME280;39571;48.612;8.088;2023-02-16T10:31:44;101024.22;;;13.73;100.00
53671;BME280;39571;48.612;8.088;2023-02-16T10:42:24;101014.09;;;15.25;100.00
53671;BME280;39571;48.612;8.088;2023-02-16T10:45:02;101009.25;;;15.59;100.00
53671;BME280;39571;48.612;8.088;2023-02-16T10:47:36;100998.97;;;16.00;100.00
53671;BME280;39571;48.612;8.088;2023-02-16T10:50:03;100998.44;;;16.32;100.00
53671;BME280;39571;48.612;8.088;2023-02-16T10:52:33;100992.78;;;16.53;100.00
53671;BME280;39571;48.612;8.088;2023-02-16T10:55:00;100998.84;;;16.61;100.00
53671;BME280;39571;48.612;8.088;2023-02-16T10:57:28;100996.97;;;16.16;100.00
53671;BME280;39571;48.612;8.088;2023-02-16T10:59:56;100988.56;;;15.90;100.00
53671;BME280;39571;48.612;8.088;2023-02-16T11:02:35;100994.56;;;15.38;100.00
53671;BME280;39571;48.612;8.088;2023-02-16T11:05:25;100993.19;;;15.07;100.00
53671;BME280;39571;48.612;8.088;2023-02-16T11:07:56;100984.81;;;14.75;100.00
53671;BME280;39571;48.612;8.088;2023-02-16T11:10:38;100975.19;;;14.69;100.00
53671;BME280;39571;48.612;8.088;2023-02-16T11:13:04;100984.00;;;14.66;100.00
53671;BME280;39571;48.612;8.088;2023-02-16T11:15:31;100977.16;;;14.49;100.00
53671;BME280;39571;48.612;8.088;2023-02-16T11:18:00;100973.75;;;14.38;100.00
53671;BME280;39571;48.612;8.088;2023-02-16T11:23:23;100972.03;;;14.35;100.00
53671;BME280;39571;48.612;8.088;2023-02-16T11:28:42;100961.38;;;14.47;100.00
53671;BME280;39571;48.612;8.088;2023-02-16T11:31:27;100963.91;;;14.58;100.00
53671;BME280;39571;48.612;8.088;2023-02-16T11:34:14;100963.81;;;14.69;100.00
53671;BME280;39571;48.612;8.088;2023-02-16T11:36:50;100960.47;;;14.51;100.00
53671;BME280;39571;48.612;8.088;2023-02-16T11:39:21;100953.59;;;14.35;100.00
53671;BME280;39571;48.612;8.088;2023-02-16T11:41:52;100964.19;;;14.26;100.00
53671;BME280;39571;48.612;8.088;2023-02-16T11:44:49;100960.81;;;14.09;100.00
53671;BME280;39571;48.612;8.088;2023-02-16T11:47:32;100951.28;;;13.96;100.00
53671;BME280;39571;48.612;8.088;2023-02-16T11:50:27;100953.00;;;13.97;100.00
53671;BME280;39571;48.612;8.088;2023-02-16T11:53:14;100935.38;;;14.09;100.00
53671;BME280;39571;48.612;8.088;2023-02-16T11:55:42;100934.38;;;14.21;100.00
53671;BME280;39571;48.612;8.088;2023-02-16T11:58:22;100928.22;;;14.22;100.00
53671;BME280;39571;48.612;8.088;2023-02-16T12:04:17;100929.81;;;14.43;100.00
53671;BME280;39571;48.612;8.088;2023-02-16T12:07:12;100929.00;;;14.36;100.00
53671;BME280;39571;48.612;8.088;2023-02-16T12:12:32;100922.06;;;14.26;100.00
53671;BME280;39571;48.612;8.088;2023-02-16T12:15:20;100916.78;;;14.26;100.00
53671;BME280;39571;48.612;8.088;2023-02-16T12:20:46;100913.34;;;14.18;100.00
53671;BME280;39571;48.612;8.088;2023-02-16T12:23:30;100908.13;;;14.15;100.00
53671;BME280;39571;48.612;8.088;2023-02-16T12:39:53;100909.50;;;13.58;100.00
53671;BME280;39571;48.612;8.088;2023-02-16T12:44:53;100908.63;;;13.57;100.00
53671;BME280;39571;48.612;8.088;2023-02-16T12:50:22;100901.53;;;13.62;100.00
53671;BME280;39571;48.612;8.088;2023-02-16T12:53:06;100897.19;;;13.60;100.00
53671;BME280;39571;48.612;8.088;2023-02-16T12:55:42;100891.00;;;13.65;100.00
53671;BME280;39571;48.612;8.088;2023-02-16T12:58:15;100905.06;;;13.61;100.00
53671;BME280;39571;48.612;8.088;2023-02-16T13:00:46;100880.53;;;13.61;100.00
53671;BME280;39571;48.612;8.088;2023-02-16T13:06:07;100878.78;;;13.58;100.00
53671;BME280;39571;48.612;8.088;2023-02-16T13:08:42;100880.53;;;13.59;100.00
53671;BME280;39571;48.612;8.088;2023-02-16T13:11:10;100873.50;;;13.61;100.00
53671;BME280;39571;48.612;8.088;2023-02-16T13:13:39;100866.41;;;13.70;100.00
53671;BME280;39571;48.612;8.088;2023-02-16T13:16:22;100873.31;;;13.83;100.00
53671;BME280;39571;48.612;8.088;2023-02-16T13:18:52;100870.72;;;13.81;100.00
53671;BME280;39571;48.612;8.088;2023-02-16T13:21:25;100875.13;;;13.78;100.00
53671;BME280;39571;48.612;8.088;2023-02-16T13:26:53;100869.13;;;13.60;100.00
53671;BME280;39571;48.612;8.088;2023-02-16T13:43:42;100857.41;;;13.95;100.00
53671;BME280;39571;48.612;8.088;2023-02-16T13:46:17;100862.72;;;13.92;96.05
53671;BME280;39571;48.612;8.088;2023-02-16T13:48:48;100859.28;;;13.85;92.68
53671;BME280;39571;48.612;8.088;2023-02-16T13:51:21;100864.53;;;13.85;100.00
53671;BME280;39571;48.612;8.088;2023-02-16T13:53:59;100859.19;;;13.93;91.20
53671;BME280;39571;48.612;8.088;2023-02-16T13:58:57;100859.28;;;13.84;94.79
53671;BME280;39571;48.612;8.088;2023-02-16T14:03:59;100855.72;;;13.88;100.00
53671;BME280;39571;48.612;8.088;2023-02-16T14:14:36;100859.25;;;13.87;100.00
53671;BME280;39571;48.612;8.088;2023-02-16T14:19:58;100861.09;;;13.76;97.24
53671;BME280;39571;48.612;8.088;2023-02-16T14:22:32;100850.63;;;13.70;99.96
53671;BME280;39571;48.612;8.088;2023-02-16T14:25:01;100847.19;;;13.64;100.00
53671;BME280;39571;48.612;8.088;2023-02-16T14:30:38;100838.50;;;13.52;100.00
53671;BME280;39571;48.612;8.088;2023-02-16T14:35:42;100832.47;;;13.39;100.00
53671;BME280;39571;48.612;8.088;2023-02-16T14:38:21;100826.38;;;13.31;100.00
53671;BME280;39571;48.612;8.088;2023-02-16T14:41:02;100830.84;;;13.23;100.00
53671;BME280;39571;48.612;8.088;2023-02-16T14:43:44;100823.84;;;13.24;100.00
53671;BME280;39571;48.612;8.088;2023-02-16T14:46:45;100816.91;;;13.10;100.00
53671;BME280;39571;48.612;8.088;2023-02-16T14:52:32;100824.81;;;13.03;100.00
53671;BME280;39571;48.612;8.088;2023-02-16T14:55:14;100826.56;;;13.01;100.00
53671;BME280;39571;48.612;8.088;2023-02-16T15:00:52;100814.38;;;12.91;100.00
53671;BME280;39571;48.612;8.088;2023-02-16T15:03:22;100799.53;;;12.85;100.00
53671;BME280;39571;48.612;8.088;2023-02-16T15:05:56;100792.53;;;12.83;100.00
53671;BME280;39571;48.612;8.088;2023-02-16T15:08:26;100807.44;;;12.81;100.00
53671;BME280;39571;48.612;8.088;2023-02-16T15:11:17;100810.09;;;12.78;100.00
53671;BME280;39571;48.612;8.088;2023-02-16T15:13:44;100807.47;;;12.75;100.00
53671;BME280;39571;48.612;8.088;2023-02-16T15:16:10;100809.22;;;12.70;100.00
53671;BME280;39571;48.612;8.088;2023-02-16T15:18:43;100804.88;;;12.69;100.00
53671;BME280;39571;48.612;8.088;2023-02-16T15:21:23;100802.28;;;12.64;100.00
53671;BME280;39571;48.612;8.088;2023-02-16T15:23:53;100797.91;;;12.63;100.00
53671;BME280;39571;48.612;8.088;2023-02-16T15:26:22;100793.53;;;12.60;100.00
53671;BME280;39571;48.612;8.088;2023-02-16T15:28:57;100796.13;;;12.62;100.00
53671;BME280;39571;48.612;8.088;2023-02-16T15:31:33;100791.75;;;12.62;100.00
53671;BME280;39571;48.612;8.088;2023-02-16T15:34:09;100791.78;;;12.61;100.00
53671;BME280;39571;48.612;8.088;2023-02-16T15:36:43;100784.78;;;12.64;100.00
53671;BME280;39571;48.612;8.088;2023-02-16T15:39:25;100777.72;;;12.70;100.00
53671;BME280;39571;48.612;8.088;2023-02-16T15:41:53;100781.25;;;12.65;100.00
53671;BME280;39571;48.612;8.088;2023-02-16T15:44:34;100781.25;;;12.65;99.93
53671;BME280;39571;48.612;8.088;2023-02-16T15:47:08;100771.59;;;12.66;100.00
53671;BME280;39571;48.612;8.088;2023-02-16T15:49:34;100776.00;;;12.65;100.00
53671;BME280;39571;48.612;8.088;2023-02-16T15:52:06;100778.59;;;12.70;96.22
53671;BME280;39571;48.612;8.088;2023-02-16T15:54:34;100786.50;;;12.65;98.45
53671;BME280;39571;48.612;8.088;2023-02-16T15:57:06;100783.00;;;12.63;100.00
53671;BME280;39571;48.612;8.088;2023-02-16T15:59:44;100786.50;;;12.62;96.81
53671;BME280;39571;48.612;8.088;2023-02-16T16:02:15;100792.66;;;12.58;96.14
53671;BME280;39571;48.612;8.088;2023-02-16T16:04:44;100790.03;;;12.55;98.88
